Lynradar: storm image Ingen tordenbyger registrert..



Vårt webkamera mer informasjon My webcam


Kamera på Foreneset mer informasjon webcam on foreneset


Lynradar mer informasjon blitzortung!


Nedbørsradar mer informasjon rain snow radar


Besøk vår andre værside:

Alternativ webside

iphone versjon

Mobil versjon

Foreneset
verstasjon



Regn Fra: 16-10-2017 23:00 til: 17-10-2017 22:59 varsel for: Regn Level: Gul info button

Nære METAR rapporter

  
ENHD - Haugesund/Karmoy, Norway
Avstand fra stasjon: V 50km
oppdatert: 17-10-2017 07:20
Lett yr, For det meste skyet
Lett yr, For det meste skyet  
 Wind from S
Vind: S 33 km/h
Temperatur:  13°C
Duggpunkt:  10°C
Fuktighet:  82%
Barometer:  1002 hPa
Summering:  Lett yr
Skyer:  For det meste skyet
Sikt:  10 km
Skydetaljer:  Få Skyer 427 m
Delvis Skyet 549 m
For det meste skyet 732 m
2017/10/17 05:20 ENHD 170520Z 19018KT 9999 -DZ FEW014TCU SCT018 BKN024 13/10 Q1002
ENZV - Stavanger/Sola(A, Norway
Avstand fra stasjon: SSV 58km
oppdatert: 17-10-2017 07:20
Rain drizzle, For det meste skyet
Rain drizzle, For det meste skyet  
 Wind from S
Vind: S 28 km/h
Temperatur:  12°C
Duggpunkt:  10°C
Fuktighet:  88%
Barometer:  1004 hPa
Summering:  Rain Drizzle
Skyer:  For det meste skyet
Sikt:  9 km
Skydetaljer:  Få Skyer 305 m
Delvis Skyet 549 m
For det meste skyet 762 m
2017/10/17 05:20 ENZV 170520Z 19015KT 9000 RADZ FEW010 SCT018 BKN025 12/10 Q1004 TEMPO -RA
ENBR - Bergen/Flesland, Norway
Avstand fra stasjon: NNV 118km
oppdatert: 17-10-2017 07:20
Lett yr, For det meste skyet
Lett yr, For det meste skyet  
 Wind from S
Vind: S 35 km/h
Temperatur:  13°C
Duggpunkt:  11°C
Fuktighet:  88%
Barometer:  1001 hPa
Summering:  Lett yr
Skyer:  For det meste skyet
Sikt:  10 km
Skydetaljer:  Få Skyer 305 m
Delvis Skyet 457 m
For det meste skyet 762 m
2017/10/17 05:20 ENBR 170520Z 17019KT 9999 -DZ FEW010 SCT015 BKN025 13/11 Q1001 NOSIG RMK WIND 1200FT 17023G36KT
ENCN - Kristiansand/Kje, Norway
Avstand fra stasjon: SØ 169km
oppdatert: 17-10-2017 07:20
For det meste skyet
For det meste skyet  
 Wind from SV
Vind: SV 24 km/h
Temperatur:  13°C
Duggpunkt:  10°C
Fuktighet:  82%
Barometer:  1007 hPa
Skyer:  For det meste skyet
Sikt:  8 km
Skydetaljer:  For det meste skyet 610 m
2017/10/17 05:20 ENCN 170520Z 23013KT 8000 BKN020 13/10 Q1007
ENQA - Troll-A Heli, Norway
Avstand fra stasjon: NV 198km
oppdatert: 17-10-2017 07:20
Lett regn, Byger, Overskyet
Lett regn, Byger, Overskyet  
 Wind from S
Vind: S 57 km/h
Temperatur:  13°C
Duggpunkt:  10°C
Fuktighet:  82%
Barometer:  999 hPa
Summering:  Lett regn, Byger
Skyer:  Overskyet
Sikt:  13 miles
Skydetaljer:  Overskyet 1280 m
2017/10/17 05:20 ENQA 170520Z AUTO 19031KT 8000NDV -SHRA OVC042/// 13/10 Q0999 W11/S4
ENOA - Oseberg, Norway
Avstand fra stasjon: NV 224km
oppdatert: 17-10-2017 07:20
Lett regn, yr, Overskyet
Lett regn, yr, Overskyet  
 Wind from S
Vind: S 39 km/h
Temperatur:  12°C
Duggpunkt:  10°C
Fuktighet:  88%
Barometer:  998 hPa
Summering:  Lett regn, yr
Skyer:  Overskyet
Sikt:  6 km
Skydetaljer:  Overskyet 610 m
2017/10/17 05:20 ENOA 170520Z 19021KT 6000 -RADZ OVC020 12/10 Q0998 W///S4
ENFG - Fagernes/Leirin, Norway
Avstand fra stasjon: NØ 257km
oppdatert: 01-09-2017 16:50
Ikke oppdatert
Lett regn, Byger, For det meste skyet
Lett regn, Byger, For det meste skyet  
 Wind from NØ
Vind: NØ 15 km/h
Temperatur:  10°C
Wind Chill:  8°C
Duggpunkt:  2°C
Fuktighet:  58%
Barometer:  1015 hPa
Summering:  Lett regn, Byger
Skyer:  For det meste skyet
Sikt:  10 km
Skydetaljer:  For det meste skyet 1372 m
2017/09/01 14:50 ENFG 011450Z 05008KT 9999 -SHRA BKN045 10/02 Q1015
ENSL - Sleipner A Platf, Norway
Avstand fra stasjon: VSV 264km
oppdatert: 17-10-2017 07:20
For det meste skyet
For det meste skyet  
 Wind from SSV
Vind: SSV 72 km/h
Temperatur:  13°C
Duggpunkt:  9°C
Fuktighet:  77%
Barometer:  996 hPa
Skyer:  For det meste skyet
Sikt:  10 km
Skydetaljer:  Få Skyer 732 m
For det meste skyet 1311 m
2017/10/17 05:20 ENSL 170520Z 20039KT 9999 FEW024 BKN043 13/09 Q0996 W11/S5
ENGC - Gullfax (platfor, Norway
Avstand fra stasjon: NV 294km
oppdatert: 17-10-2017 07:20
Lett regn, For det meste skyet
Lett regn, For det meste skyet  
 Wind from ØNØ
Vind: ØNØ 76 km/h
Temperatur:  10°C
Wind Chill:  4°C
Duggpunkt:  6°C
Fuktighet:  76%
Barometer:  999 hPa
Summering:  Lett regn
Skyer:  For det meste skyet
Sikt:  10 km
Skydetaljer:  For det meste skyet 305 m
2017/10/17 05:20 ENGC 170520Z 07041KT 9999 -RA BKN010 10/06 Q0999 W10/S4
ENGM - Oslo/Gardermoen, Norway
Avstand fra stasjon: ØNØ 294km
oppdatert: 17-10-2017 07:20
yr, For det meste skyet
yr, For det meste skyet  
 Wind from NNØ
Vind: NNØ 13 km/h
Temperatur:  6°C
Wind Chill:  3°C
Duggpunkt:  5°C
Fuktighet:  93%
Barometer:  1007 hPa
Summering:  yr
Skyer:  For det meste skyet
Sikt:  7 km
Skydetaljer:  For det meste skyet 91 m
2017/10/17 05:20 ENGM 170520Z 02007KT 7000 DZ BKN003 06/05 Q1007 TEMPO BKN008

Script utviklet av  Saratoga-weather.org Tilrettelagt for malen av  Weerstation Leuven

Du finner vår vær info også på:


UK Metoffice

European Weather Network

WeatherCloud

Weather Underground

Utstyr vi bruker:


Værstsjon
Davis VP2

Værprogram
Weather Display

Davis VP2

Weather Display